sensor_id;sensor_type;location;lat;lon;timestamp;temperature;humidity
75961;SHT30;64644;48.914;2.254;2024-02-21T00:01:41;11.23;71.02
75961;SHT30;64644;48.914;2.254;2024-02-21T00:04:07;11.24;71.00
75961;SHT30;64644;48.914;2.254;2024-02-21T00:06:32;11.24;71.05
75961;SHT30;64644;48.914;2.254;2024-02-21T00:08:58;11.22;71.05
75961;SHT30;64644;48.914;2.254;2024-02-21T00:11:23;11.23;71.10
75961;SHT30;64644;48.914;2.254;2024-02-21T00:13:49;11.24;71.11
75961;SHT30;64644;48.914;2.254;2024-02-21T00:16:16;11.24;71.16
75961;SHT30;64644;48.914;2.254;2024-02-21T00:18:41;11.23;71.13
75961;SHT30;64644;48.914;2.254;2024-02-21T00:21:07;11.23;71.18
75961;SHT30;64644;48.914;2.254;2024-02-21T00:23:32;11.24;71.18
75961;SHT30;64644;48.914;2.254;2024-02-21T00:25:57;11.22;71.17
75961;SHT30;64644;48.914;2.254;2024-02-21T00:28:23;11.26;71.18
75961;SHT30;64644;48.914;2.254;2024-02-21T00:30:48;11.30;71.21
75961;SHT30;64644;48.914;2.254;2024-02-21T00:33:16;11.27;71.19
75961;SHT30;64644;48.914;2.254;2024-02-21T00:35:41;11.26;71.20
75961;SHT30;64644;48.914;2.254;2024-02-21T00:38:06;11.27;71.22
75961;SHT30;64644;48.914;2.254;2024-02-21T00:40:32;11.27;71.22
75961;SHT30;64644;48.914;2.254;2024-02-21T00:42:57;11.27;71.19
75961;SHT30;64644;48.914;2.254;2024-02-21T00:45:22;11.26;71.25
75961;SHT30;64644;48.914;2.254;2024-02-21T00:47:48;11.30;71.23
75961;SHT30;64644;48.914;2.254;2024-02-21T00:50:13;11.30;71.19
75961;SHT30;64644;48.914;2.254;2024-02-21T00:52:39;11.33;71.22
75961;SHT30;64644;48.914;2.254;2024-02-21T00:55:05;11.34;71.22
75961;SHT30;64644;48.914;2.254;2024-02-21T00:57:30;11.34;71.22
75961;SHT30;64644;48.914;2.254;2024-02-21T00:59:57;11.37;71.19
75961;SHT30;64644;48.914;2.254;2024-02-21T01:02:22;11.35;71.17
75961;SHT30;64644;48.914;2.254;2024-02-21T01:04:48;11.40;71.17
75961;SHT30;64644;48.914;2.254;2024-02-21T01:07:13;11.41;71.15
75961;SHT30;64644;48.914;2.254;2024-02-21T01:09:38;11.40;71.06
75961;SHT30;64644;48.914;2.254;2024-02-21T01:12:04;11.41;71.08
75961;SHT30;64644;48.914;2.254;2024-02-21T01:14:29;11.44;71.11
75961;SHT30;64644;48.914;2.254;2024-02-21T01:16:55;11.47;71.08
75961;SHT30;64644;48.914;2.254;2024-02-21T01:19:20;11.48;71.03
75961;SHT30;64644;48.914;2.254;2024-02-21T01:21:45;11.50;71.03
75961;SHT30;64644;48.914;2.254;2024-02-21T01:24:11;11.50;71.00
75961;SHT30;64644;48.914;2.254;2024-02-21T01:26:36;11.51;70.95
75961;SHT30;64644;48.914;2.254;2024-02-21T01:29:01;11.50;70.91
75961;SHT30;64644;48.914;2.254;2024-02-21T01:31:27;11.48;70.89
75961;SHT30;64644;48.914;2.254;2024-02-21T01:33:52;11.48;70.89
75961;SHT30;64644;48.914;2.254;2024-02-21T01:36:17;11.47;70.92
75961;SHT30;64644;48.914;2.254;2024-02-21T01:38:43;11.51;70.98
75961;SHT30;64644;48.914;2.254;2024-02-21T01:41:08;11.48;70.97
75961;SHT30;64644;48.914;2.254;2024-02-21T01:43:34;11.50;70.92
75961;SHT30;64644;48.914;2.254;2024-02-21T01:46:00;11.48;70.87
75961;SHT30;64644;48.914;2.254;2024-02-21T01:48:25;11.50;70.89
75961;SHT30;64644;48.914;2.254;2024-02-21T01:50:52;11.48;70.94
75961;SHT30;64644;48.914;2.254;2024-02-21T01:53:22;11.50;70.93
75961;SHT30;64644;48.914;2.254;2024-02-21T01:55:48;11.47;70.88
75961;SHT30;64644;48.914;2.254;2024-02-21T01:58:14;11.42;70.83
75961;SHT30;64644;48.914;2.254;2024-02-21T02:00:43;11.42;70.87
75961;SHT30;64644;48.914;2.254;2024-02-21T02:03:13;11.41;70.86
75961;SHT30;64644;48.914;2.254;2024-02-21T02:05:48;11.35;70.85
75961;SHT30;64644;48.914;2.254;2024-02-21T02:08:19;11.33;70.91
75961;SHT30;64644;48.914;2.254;2024-02-21T02:10:45;11.31;71.01
75961;SHT30;64644;48.914;2.254;2024-02-21T02:13:11;11.28;71.03
75961;SHT30;64644;48.914;2.254;2024-02-21T02:18:08;11.26;71.11
75961;SHT30;64644;48.914;2.254;2024-02-21T02:20:34;11.22;71.06
75961;SHT30;64644;48.914;2.254;2024-02-21T02:23:04;11.20;71.10
75961;SHT30;64644;48.914;2.254;2024-02-21T02:25:32;11.19;71.12
75961;SHT30;64644;48.914;2.254;2024-02-21T02:27:57;11.13;71.07
75961;SHT30;64644;48.914;2.254;2024-02-21T02:30:23;11.10;71.14
75961;SHT30;64644;48.914;2.254;2024-02-21T02:32:48;11.06;71.15
75961;SHT30;64644;48.914;2.254;2024-02-21T02:35:13;11.05;71.21
75961;SHT30;64644;48.914;2.254;2024-02-21T02:37:39;11.07;71.25
75961;SHT30;64644;48.914;2.254;2024-02-21T02:40:06;11.06;71.28
75961;SHT30;64644;48.914;2.254;2024-02-21T02:42:31;11.09;71.34
75961;SHT30;64644;48.914;2.254;2024-02-21T02:44:57;11.07;71.29
75961;SHT30;64644;48.914;2.254;2024-02-21T02:47:22;11.06;71.26
75961;SHT30;64644;48.914;2.254;2024-02-21T02:49:48;11.03;71.29
75961;SHT30;64644;48.914;2.254;2024-02-21T02:52:18;11.07;71.31
75961;SHT30;64644;48.914;2.254;2024-02-21T02:54:44;11.05;71.27
75961;SHT30;64644;48.914;2.254;2024-02-21T02:57:10;11.02;71.29
75961;SHT30;64644;48.914;2.254;2024-02-21T02:59:35;10.99;71.34
75961;SHT30;64644;48.914;2.254;2024-02-21T03:02:01;11.00;71.29
75961;SHT30;64644;48.914;2.254;2024-02-21T03:04:26;10.95;71.35
75961;SHT30;64644;48.914;2.254;2024-02-21T03:06:52;10.93;71.33
75961;SHT30;64644;48.914;2.254;2024-02-21T03:09:17;10.92;71.39
75961;SHT30;64644;48.914;2.254;2024-02-21T03:11:42;10.92;71.46
75961;SHT30;64644;48.914;2.254;2024-02-21T03:14:10;10.89;71.49
75961;SHT30;64644;48.914;2.254;2024-02-21T03:16:36;10.91;71.51
75961;SHT30;64644;48.914;2.254;2024-02-21T03:19:01;10.92;71.54
75961;SHT30;64644;48.914;2.254;2024-02-21T03:21:26;10.92;71.58
75961;SHT30;64644;48.914;2.254;2024-02-21T03:23:52;10.91;71.62
75961;SHT30;64644;48.914;2.254;2024-02-21T03:26:17;10.93;71.61
75961;SHT30;64644;48.914;2.254;2024-02-21T03:28:43;10.95;71.65
75961;SHT30;64644;48.914;2.254;2024-02-21T03:31:11;10.93;71.53
75961;SHT30;64644;48.914;2.254;2024-02-21T03:33:37;10.92;71.52
75961;SHT30;64644;48.914;2.254;2024-02-21T03:36:02;10.89;71.54
75961;SHT30;64644;48.914;2.254;2024-02-21T03:38:28;10.92;71.59
75961;SHT30;64644;48.914;2.254;2024-02-21T03:40:54;10.95;71.62
75961;SHT30;64644;48.914;2.254;2024-02-21T03:43:19;10.95;71.58
75961;SHT30;64644;48.914;2.254;2024-02-21T03:45:45;10.93;71.56
75961;SHT30;64644;48.914;2.254;2024-02-21T03:48:10;10.95;71.58
75961;SHT30;64644;48.914;2.254;2024-02-21T03:50:35;10.95;71.52
75961;SHT30;64644;48.914;2.254;2024-02-21T03:53:01;10.95;71.52
75961;SHT30;64644;48.914;2.254;2024-02-21T03:55:26;10.99;71.50
75961;SHT30;64644;48.914;2.254;2024-02-21T03:57:51;10.96;71.55
75961;SHT30;64644;48.914;2.254;2024-02-21T04:00:17;10.97;71.54
75961;SHT30;64644;48.914;2.254;2024-02-21T04:02:43;10.99;71.55
75961;SHT30;64644;48.914;2.254;2024-02-21T04:05:08;11.02;71.59
75961;SHT30;64644;48.914;2.254;2024-02-21T04:07:37;11.05;71.55
75961;SHT30;64644;48.914;2.254;2024-02-21T04:10:02;11.06;71.46
75961;SHT30;64644;48.914;2.254;2024-02-21T04:12:28;11.06;71.42
75961;SHT30;64644;48.914;2.254;2024-02-21T04:14:53;11.07;71.46
75961;SHT30;64644;48.914;2.254;2024-02-21T04:17:18;11.06;71.42
75961;SHT30;64644;48.914;2.254;2024-02-21T04:19:44;11.06;71.42
75961;SHT30;64644;48.914;2.254;2024-02-21T04:22:09;11.09;71.33
75961;SHT30;64644;48.914;2.254;2024-02-21T04:24:34;11.02;71.29
75961;SHT30;64644;48.914;2.254;2024-02-21T04:27:00;10.99;71.38
75961;SHT30;64644;48.914;2.254;2024-02-21T04:29:25;11.03;71.47
75961;SHT30;64644;48.914;2.254;2024-02-21T04:31:51;11.03;71.40
75961;SHT30;64644;48.914;2.254;2024-02-21T04:34:16;11.03;71.40
75961;SHT30;64644;48.914;2.254;2024-02-21T04:36:41;11.02;71.39
75961;SHT30;64644;48.914;2.254;2024-02-21T04:39:08;11.00;71.38
75961;SHT30;64644;48.914;2.254;2024-02-21T04:41:33;11.00;71.40
75961;SHT30;64644;48.914;2.254;2024-02-21T04:43:59;11.03;71.36
75961;SHT30;64644;48.914;2.254;2024-02-21T04:46:25;10.97;71.35
75961;SHT30;64644;48.914;2.254;2024-02-21T04:48:50;10.95;71.26
75961;SHT30;64644;48.914;2.254;2024-02-21T04:51:15;10.93;71.31
75961;SHT30;64644;48.914;2.254;2024-02-21T04:53:41;10.93;71.34
75961;SHT30;64644;48.914;2.254;2024-02-21T04:56:06;10.89;71.36
75961;SHT30;64644;48.914;2.254;2024-02-21T04:58:31;10.88;71.47
75961;SHT30;64644;48.914;2.254;2024-02-21T05:00:57;10.86;71.44
75961;SHT30;64644;48.914;2.254;2024-02-21T05:03:23;10.85;71.40
75961;SHT30;64644;48.914;2.254;2024-02-21T05:05:48;10.80;71.46
75961;SHT30;64644;48.914;2.254;2024-02-21T05:08:13;10.80;71.53
75961;SHT30;64644;48.914;2.254;2024-02-21T05:10:39;10.78;71.54
75961;SHT30;64644;48.914;2.254;2024-02-21T05:13:04;10.79;71.54
75961;SHT30;64644;48.914;2.254;2024-02-21T05:15:29;10.79;71.57
75961;SHT30;64644;48.914;2.254;2024-02-21T05:17:55;10.75;71.61
75961;SHT30;64644;48.914;2.254;2024-02-21T05:20:20;10.78;71.61
75961;SHT30;64644;48.914;2.254;2024-02-21T05:22:45;10.75;71.67
75961;SHT30;64644;48.914;2.254;2024-02-21T05:25:11;10.75;71.74
75961;SHT30;64644;48.914;2.254;2024-02-21T05:27:36;10.79;71.78
75961;SHT30;64644;48.914;2.254;2024-02-21T05:30:04;10.80;71.70
75961;SHT30;64644;48.914;2.254;2024-02-21T05:32:31;10.78;71.67
75961;SHT30;64644;48.914;2.254;2024-02-21T05:34:57;10.72;71.65
75961;SHT30;64644;48.914;2.254;2024-02-21T05:37:23;10.69;71.73
75961;SHT30;64644;48.914;2.254;2024-02-21T05:39:48;10.68;71.78
75961;SHT30;64644;48.914;2.254;2024-02-21T05:42:14;10.67;71.76
75961;SHT30;64644;48.914;2.254;2024-02-21T05:44:39;10.68;71.81
75961;SHT30;64644;48.914;2.254;2024-02-21T05:47:04;10.64;71.83
75961;SHT30;64644;48.914;2.254;2024-02-21T05:49:35;10.68;71.87
75961;SHT30;64644;48.914;2.254;2024-02-21T05:52:00;10.68;71.92
75961;SHT30;64644;48.914;2.254;2024-02-21T05:54:25;10.64;71.86
75961;SHT30;64644;48.914;2.254;2024-02-21T05:56:51;10.65;71.98
75961;SHT30;64644;48.914;2.254;2024-02-21T05:59:17;10.67;71.97
75961;SHT30;64644;48.914;2.254;2024-02-21T06:01:42;10.68;71.98
75961;SHT30;64644;48.914;2.254;2024-02-21T06:04:07;10.72;71.97
75961;SHT30;64644;48.914;2.254;2024-02-21T06:06:33;10.65;71.83
75961;SHT30;64644;48.914;2.254;2024-02-21T06:08:59;10.62;71.81
75961;SHT30;64644;48.914;2.254;2024-02-21T06:11:25;10.62;71.93
75961;SHT30;64644;48.914;2.254;2024-02-21T06:13:50;10.57;72.00
75961;SHT30;64644;48.914;2.254;2024-02-21T06:16:15;10.58;72.09
75961;SHT30;64644;48.914;2.254;2024-02-21T06:18:41;10.57;72.12
75961;SHT30;64644;48.914;2.254;2024-02-21T06:21:06;10.58;72.12
75961;SHT30;64644;48.914;2.254;2024-02-21T06:23:32;10.55;72.10
75961;SHT30;64644;48.914;2.254;2024-02-21T06:25:57;10.55;72.20
75961;SHT30;64644;48.914;2.254;2024-02-21T06:28:22;10.54;72.17
75961;SHT30;64644;48.914;2.254;2024-02-21T06:30:48;10.54;72.22
75961;SHT30;64644;48.914;2.254;2024-02-21T06:33:13;10.54;72.22
75961;SHT30;64644;48.914;2.254;2024-02-21T06:35:38;10.52;72.31
75961;SHT30;64644;48.914;2.254;2024-02-21T06:38:06;10.57;72.38
75961;SHT30;64644;48.914;2.254;2024-02-21T06:40:32;10.61;72.45
75961;SHT30;64644;48.914;2.254;2024-02-21T06:43:03;10.60;72.46
75961;SHT30;64644;48.914;2.254;2024-02-21T06:45:28;10.61;72.44
75961;SHT30;64644;48.914;2.254;2024-02-21T06:47:54;10.61;72.43
75961;SHT30;64644;48.914;2.254;2024-02-21T06:50:19;10.61;72.50
75961;SHT30;64644;48.914;2.254;2024-02-21T06:52:44;10.64;72.56
75961;SHT30;64644;48.914;2.254;2024-02-21T06:55:10;10.62;72.46
75961;SHT30;64644;48.914;2.254;2024-02-21T06:57:35;10.61;72.56
75961;SHT30;64644;48.914;2.254;2024-02-21T07:00:00;10.64;72.57
75961;SHT30;64644;48.914;2.254;2024-02-21T07:02:26;10.64;72.62
75961;SHT30;64644;48.914;2.254;2024-02-21T07:04:51;10.65;72.64
75961;SHT30;64644;48.914;2.254;2024-02-21T07:07:16;10.65;72.50
75961;SHT30;64644;48.914;2.254;2024-02-21T07:09:42;10.65;72.53
75961;SHT30;64644;48.914;2.254;2024-02-21T07:12:07;10.64;72.49
75961;SHT30;64644;48.914;2.254;2024-02-21T07:14:32;10.65;72.49
75961;SHT30;64644;48.914;2.254;2024-02-21T07:16:58;10.69;72.55
75961;SHT30;64644;48.914;2.254;2024-02-21T07:19:23;10.65;72.44
75961;SHT30;64644;48.914;2.254;2024-02-21T07:21:49;10.65;72.45
75961;SHT30;64644;48.914;2.254;2024-02-21T07:24:14;10.64;72.43
75961;SHT30;64644;48.914;2.254;2024-02-21T07:26:43;10.65;72.45
75961;SHT30;64644;48.914;2.254;2024-02-21T07:29:09;10.68;72.41
75961;SHT30;64644;48.914;2.254;2024-02-21T07:31:42;10.68;72.39
75961;SHT30;64644;48.914;2.254;2024-02-21T07:34:08;10.72;72.43
75961;SHT30;64644;48.914;2.254;2024-02-21T07:36:33;10.71;72.30
75961;SHT30;64644;48.914;2.254;2024-02-21T07:38:59;10.68;72.31
75961;SHT30;64644;48.914;2.254;2024-02-21T07:41:27;10.76;72.32
75961;SHT30;64644;48.914;2.254;2024-02-21T07:43:55;10.76;72.23
75961;SHT30;64644;48.914;2.254;2024-02-21T07:46:20;10.75;72.22
75961;SHT30;64644;48.914;2.254;2024-02-21T07:48:46;10.76;72.16
75961;SHT30;64644;48.914;2.254;2024-02-21T07:51:12;10.76;72.16
75961;SHT30;64644;48.914;2.254;2024-02-21T07:53:38;10.80;72.13
75961;SHT30;64644;48.914;2.254;2024-02-21T07:56:04;10.83;72.12
75961;SHT30;64644;48.914;2.254;2024-02-21T07:58:29;10.85;72.14
75961;SHT30;64644;48.914;2.254;2024-02-21T08:00:55;10.91;72.10
75961;SHT30;64644;48.914;2.254;2024-02-21T08:03:20;10.93;72.08
75961;SHT30;64644;48.914;2.254;2024-02-21T08:05:46;10.97;72.07
75961;SHT30;64644;48.914;2.254;2024-02-21T08:08:12;11.05;71.97
75961;SHT30;64644;48.914;2.254;2024-02-21T08:10:43;11.09;71.92
75961;SHT30;64644;48.914;2.254;2024-02-21T08:13:08;11.10;71.78
75961;SHT30;64644;48.914;2.254;2024-02-21T08:15:34;11.13;71.73
75961;SHT30;64644;48.914;2.254;2024-02-21T08:17:59;11.12;71.68
75961;SHT30;64644;48.914;2.254;2024-02-21T08:20:26;11.09;71.59
75961;SHT30;64644;48.914;2.254;2024-02-21T08:22:52;11.07;71.51
75961;SHT30;64644;48.914;2.254;2024-02-21T08:25:17;11.10;71.55
75961;SHT30;64644;48.914;2.254;2024-02-21T08:27:42;11.07;71.54
75961;SHT30;64644;48.914;2.254;2024-02-21T08:30:08;11.10;71.51
75961;SHT30;64644;48.914;2.254;2024-02-21T08:32:34;11.16;71.51
75961;SHT30;64644;48.914;2.254;2024-02-21T08:35:01;11.16;71.45
75961;SHT30;64644;48.914;2.254;2024-02-21T08:37:27;11.17;71.40
75961;SHT30;64644;48.914;2.254;2024-02-21T08:39:52;11.17;71.40
75961;SHT30;64644;48.914;2.254;2024-02-21T08:42:18;11.17;71.36
75961;SHT30;64644;48.914;2.254;2024-02-21T08:44:44;11.17;71.27
75961;SHT30;64644;48.914;2.254;2024-02-21T08:47:09;11.16;71.26
75961;SHT30;64644;48.914;2.254;2024-02-21T08:49:35;11.16;71.24
75961;SHT30;64644;48.914;2.254;2024-02-21T08:52:01;11.19;71.23
75961;SHT30;64644;48.914;2.254;2024-02-21T08:54:27;11.20;71.21
75961;SHT30;64644;48.914;2.254;2024-02-21T08:56:54;11.19;71.22
75961;SHT30;64644;48.914;2.254;2024-02-21T08:59:19;11.24;71.17
75961;SHT30;64644;48.914;2.254;2024-02-21T09:01:45;11.23;71.08
75961;SHT30;64644;48.914;2.254;2024-02-21T09:04:11;11.22;71.02
75961;SHT30;64644;48.914;2.254;2024-02-21T09:06:36;11.24;71.05
75961;SHT30;64644;48.914;2.254;2024-02-21T09:09:04;11.30;71.11
75961;SHT30;64644;48.914;2.254;2024-02-21T09:11:30;11.34;71.05
75961;SHT30;64644;48.914;2.254;2024-02-21T09:13:55;11.40;71.05
75961;SHT30;64644;48.914;2.254;2024-02-21T09:16:20;11.44;70.92
75961;SHT30;64644;48.914;2.254;2024-02-21T09:18:46;11.47;70.90
75961;SHT30;64644;48.914;2.254;2024-02-21T09:21:11;11.48;70.81
75961;SHT30;64644;48.914;2.254;2024-02-21T09:23:37;11.52;70.76
75961;SHT30;64644;48.914;2.254;2024-02-21T09:26:02;11.55;70.73
75961;SHT30;64644;48.914;2.254;2024-02-21T09:28:29;11.61;70.69
75961;SHT30;64644;48.914;2.254;2024-02-21T09:30:55;11.65;70.61
75961;SHT30;64644;48.914;2.254;2024-02-21T09:33:20;11.67;70.50
75961;SHT30;64644;48.914;2.254;2024-02-21T09:35:45;11.75;70.48
75961;SHT30;64644;48.914;2.254;2024-02-21T09:38:11;11.78;70.44
75961;SHT30;64644;48.914;2.254;2024-02-21T09:40:37;11.85;70.35
75961;SHT30;64644;48.914;2.254;2024-02-21T09:43:04;11.85;70.21
75961;SHT30;64644;48.914;2.254;2024-02-21T09:45:32;11.85;70.10
75961;SHT30;64644;48.914;2.254;2024-02-21T09:48:11;11.87;70.08
75961;SHT30;64644;48.914;2.254;2024-02-21T09:50:40;11.87;70.04
75961;SHT30;64644;48.914;2.254;2024-02-21T09:53:06;11.86;69.95
75961;SHT30;64644;48.914;2.254;2024-02-21T09:55:33;11.87;69.88
75961;SHT30;64644;48.914;2.254;2024-02-21T09:58:01;11.90;69.89
75961;SHT30;64644;48.914;2.254;2024-02-21T10:00:26;11.93;69.83
75961;SHT30;64644;48.914;2.254;2024-02-21T10:02:53;11.96;69.88
75961;SHT30;64644;48.914;2.254;2024-02-21T10:05:18;12.02;69.84
75961;SHT30;64644;48.914;2.254;2024-02-21T10:07:44;12.03;69.78
75961;SHT30;64644;48.914;2.254;2024-02-21T10:10:09;12.10;69.75
75961;SHT30;64644;48.914;2.254;2024-02-21T10:12:35;12.13;69.65
75961;SHT30;64644;48.914;2.254;2024-02-21T10:15:04;12.19;69.57
75961;SHT30;64644;48.914;2.254;2024-02-21T10:17:32;12.24;69.60
75961;SHT30;64644;48.914;2.254;2024-02-21T10:20:09;12.29;69.42
75961;SHT30;64644;48.914;2.254;2024-02-21T10:22:35;12.36;69.38
75961;SHT30;64644;48.914;2.254;2024-02-21T10:25:12;12.41;69.33
75961;SHT30;64644;48.914;2.254;2024-02-21T10:27:38;12.45;69.26
75961;SHT30;64644;48.914;2.254;2024-02-21T10:30:06;12.47;69.21
75961;SHT30;64644;48.914;2.254;2024-02-21T10:32:32;12.52;69.06
75961;SHT30;64644;48.914;2.254;2024-02-21T10:35:02;12.61;69.03
75961;SHT30;64644;48.914;2.254;2024-02-21T10:37:29;12.64;68.89
75961;SHT30;64644;48.914;2.254;2024-02-21T10:39:55;12.69;68.79
75961;SHT30;64644;48.914;2.254;2024-02-21T10:42:22;12.75;68.72
75961;SHT30;64644;48.914;2.254;2024-02-21T10:44:50;12.79;68.70
75961;SHT30;64644;48.914;2.254;2024-02-21T10:47:19;12.82;68.51
75961;SHT30;64644;48.914;2.254;2024-02-21T10:49:50;12.85;68.44
75961;SHT30;64644;48.914;2.254;2024-02-21T10:52:32;12.86;68.25
75961;SHT30;64644;48.914;2.254;2024-02-21T10:55:03;12.82;67.93
75961;SHT30;64644;48.914;2.254;2024-02-21T10:57:31;12.82;67.93
75961;SHT30;64644;48.914;2.254;2024-02-21T10:59:58;12.82;67.91
75961;SHT30;64644;48.914;2.254;2024-02-21T11:02:24;12.86;67.95
75961;SHT30;64644;48.914;2.254;2024-02-21T11:04:50;12.88;67.93
75961;SHT30;64644;48.914;2.254;2024-02-21T11:07:18;12.83;67.73
75961;SHT30;64644;48.914;2.254;2024-02-21T11:09:51;12.78;67.59
75961;SHT30;64644;48.914;2.254;2024-02-21T11:12:20;12.76;67.59
75961;SHT30;64644;48.914;2.254;2024-02-21T11:14:46;12.81;67.67
75961;SHT30;64644;48.914;2.254;2024-02-21T11:17:16;12.88;67.77
75961;SHT30;64644;48.914;2.254;2024-02-21T11:19:46;12.91;67.82
75961;SHT30;64644;48.914;2.254;2024-02-21T11:22:16;12.89;67.69
75961;SHT30;64644;48.914;2.254;2024-02-21T11:24:42;12.92;67.61
75961;SHT30;64644;48.914;2.254;2024-02-21T11:27:15;12.88;67.54
75961;SHT30;64644;48.914;2.254;2024-02-21T11:32:20;12.95;67.53
75961;SHT30;64644;48.914;2.254;2024-02-21T11:35:02;12.96;67.50
75961;SHT30;64644;48.914;2.254;2024-02-21T11:37:32;12.97;67.44
75961;SHT30;64644;48.914;2.254;2024-02-21T11:39:59;13.02;67.45
75961;SHT30;64644;48.914;2.254;2024-02-21T11:42:25;13.04;67.51
75961;SHT30;64644;48.914;2.254;2024-02-21T11:44:51;13.07;67.42
75961;SHT30;64644;48.914;2.254;2024-02-21T11:47:17;13.09;67.19
75961;SHT30;64644;48.914;2.254;2024-02-21T11:49:45;13.10;67.03
75961;SHT30;64644;48.914;2.254;2024-02-21T11:52:15;13.10;66.90
75961;SHT30;64644;48.914;2.254;2024-02-21T11:54:42;13.11;66.74
75961;SHT30;64644;48.914;2.254;2024-02-21T11:57:09;13.04;66.51
75961;SHT30;64644;48.914;2.254;2024-02-21T11:59:35;13.07;66.56
75961;SHT30;64644;48.914;2.254;2024-02-21T12:02:01;13.07;66.56
75961;SHT30;64644;48.914;2.254;2024-02-21T12:04:28;13.07;66.21
75961;SHT30;64644;48.914;2.254;2024-02-21T12:06:54;13.06;66.20
75961;SHT30;64644;48.914;2.254;2024-02-21T12:09:19;13.09;66.16
75961;SHT30;64644;48.914;2.254;2024-02-21T12:11:45;13.04;66.04
75961;SHT30;64644;48.914;2.254;2024-02-21T12:14:16;13.09;66.11
75961;SHT30;64644;48.914;2.254;2024-02-21T12:16:41;13.10;66.02
75961;SHT30;64644;48.914;2.254;2024-02-21T12:19:07;13.10;66.07
75961;SHT30;64644;48.914;2.254;2024-02-21T12:21:34;13.17;66.15
75961;SHT30;64644;48.914;2.254;2024-02-21T12:24:15;13.20;66.12
75961;SHT30;64644;48.914;2.254;2024-02-21T12:26:41;13.21;65.94
75961;SHT30;64644;48.914;2.254;2024-02-21T12:29:06;13.30;65.95
75961;SHT30;64644;48.914;2.254;2024-02-21T12:31:35;13.51;65.96
75961;SHT30;64644;48.914;2.254;2024-02-21T12:34:00;13.82;65.84
75961;SHT30;64644;48.914;2.254;2024-02-21T12:36:25;14.17;65.66
75961;SHT30;64644;48.914;2.254;2024-02-21T12:38:51;14.60;65.15
75961;SHT30;64644;48.914;2.254;2024-02-21T12:41:16;14.92;64.54
75961;SHT30;64644;48.914;2.254;2024-02-21T12:43:42;15.37;64.16
75961;SHT30;64644;48.914;2.254;2024-02-21T12:46:07;15.57;63.27
75961;SHT30;64644;48.914;2.254;2024-02-21T12:48:33;15.65;62.67
75961;SHT30;64644;48.914;2.254;2024-02-21T12:50:59;15.65;62.41
75961;SHT30;64644;48.914;2.254;2024-02-21T12:53:24;15.65;62.07
75961;SHT30;64644;48.914;2.254;2024-02-21T12:55:50;15.48;61.71
75961;SHT30;64644;48.914;2.254;2024-02-21T12:58:16;15.28;61.75
75961;SHT30;64644;48.914;2.254;2024-02-21T13:00:41;15.13;62.00
75961;SHT30;64644;48.914;2.254;2024-02-21T13:03:07;14.93;62.34
75961;SHT30;64644;48.914;2.254;2024-02-21T13:05:32;14.76;62.64
75961;SHT30;64644;48.914;2.254;2024-02-21T13:07:58;14.58;63.03
75961;SHT30;64644;48.914;2.254;2024-02-21T13:10:24;14.44;63.35
75961;SHT30;64644;48.914;2.254;2024-02-21T13:12:50;14.27;63.75
75961;SHT30;64644;48.914;2.254;2024-02-21T13:15:15;14.14;64.19
75961;SHT30;64644;48.914;2.254;2024-02-21T13:17:43;13.98;64.68
75961;SHT30;64644;48.914;2.254;2024-02-21T13:20:09;13.75;65.22
75961;SHT30;64644;48.914;2.254;2024-02-21T13:22:35;13.64;65.80
75961;SHT30;64644;48.914;2.254;2024-02-21T13:25:01;13.58;66.11
75961;SHT30;64644;48.914;2.254;2024-02-21T13:27:26;13.54;66.44
75961;SHT30;64644;48.914;2.254;2024-02-21T13:29:51;13.40;66.80
75961;SHT30;64644;48.914;2.254;2024-02-21T13:32:20;13.28;67.29
75961;SHT30;64644;48.914;2.254;2024-02-21T13:34:45;13.23;67.63
75961;SHT30;64644;48.914;2.254;2024-02-21T13:37:10;13.19;67.99
75961;SHT30;64644;48.914;2.254;2024-02-21T13:39:37;13.19;68.22
75961;SHT30;64644;48.914;2.254;2024-02-21T13:42:02;13.07;68.48
75961;SHT30;64644;48.914;2.254;2024-02-21T13:44:31;13.03;68.69
75961;SHT30;64644;48.914;2.254;2024-02-21T13:46:56;12.96;68.87
75961;SHT30;64644;48.914;2.254;2024-02-21T13:49:24;12.91;69.75
75961;SHT30;64644;48.914;2.254;2024-02-21T13:51:49;12.81;69.98
75961;SHT30;64644;48.914;2.254;2024-02-21T13:54:14;12.78;69.92
75961;SHT30;64644;48.914;2.254;2024-02-21T13:56:42;12.69;70.14
75961;SHT30;64644;48.914;2.254;2024-02-21T13:59:08;12.58;70.45
75961;SHT30;64644;48.914;2.254;2024-02-21T14:01:33;12.57;70.80
75961;SHT30;64644;48.914;2.254;2024-02-21T14:03:58;12.54;70.84
75961;SHT30;64644;48.914;2.254;2024-02-21T14:06:24;12.48;71.03
75961;SHT30;64644;48.914;2.254;2024-02-21T14:08:49;12.44;71.29
75961;SHT30;64644;48.914;2.254;2024-02-21T14:11:15;12.40;71.39
75961;SHT30;64644;48.914;2.254;2024-02-21T14:13:40;12.37;71.57
75961;SHT30;64644;48.914;2.254;2024-02-21T14:16:11;12.33;71.97
75961;SHT30;64644;48.914;2.254;2024-02-21T14:18:40;12.30;72.03
75961;SHT30;64644;48.914;2.254;2024-02-21T14:21:09;12.23;72.18
75961;SHT30;64644;48.914;2.254;2024-02-21T14:23:37;12.24;72.50
75961;SHT30;64644;48.914;2.254;2024-02-21T14:26:04;12.21;72.50
75961;SHT30;64644;48.914;2.254;2024-02-21T14:28:29;12.17;72.62
75961;SHT30;64644;48.914;2.254;2024-02-21T14:30:55;12.13;72.79
75961;SHT30;64644;48.914;2.254;2024-02-21T14:33:28;12.10;73.02
75961;SHT30;64644;48.914;2.254;2024-02-21T14:35:55;12.06;73.19
75961;SHT30;64644;48.914;2.254;2024-02-21T14:38:20;12.03;73.54
75961;SHT30;64644;48.914;2.254;2024-02-21T14:40:45;11.97;73.59
75961;SHT30;64644;48.914;2.254;2024-02-21T14:43:11;11.97;73.73
75961;SHT30;64644;48.914;2.254;2024-02-21T14:45:36;11.95;74.00
75961;SHT30;64644;48.914;2.254;2024-02-21T14:48:03;11.97;74.08
75961;SHT30;64644;48.914;2.254;2024-02-21T14:50:29;11.95;74.27
75961;SHT30;64644;48.914;2.254;2024-02-21T14:52:54;11.95;74.38
75961;SHT30;64644;48.914;2.254;2024-02-21T14:55:19;11.90;74.59
75961;SHT30;64644;48.914;2.254;2024-02-21T14:57:45;11.90;74.77
75961;SHT30;64644;48.914;2.254;2024-02-21T15:00:10;11.90;75.01
75961;SHT30;64644;48.914;2.254;2024-02-21T15:02:36;11.90;75.31
75961;SHT30;64644;48.914;2.254;2024-02-21T15:05:02;11.90;75.45
75961;SHT30;64644;48.914;2.254;2024-02-21T15:07:28;11.89;75.36
75961;SHT30;64644;48.914;2.254;2024-02-21T15:09:54;11.90;75.37
75961;SHT30;64644;48.914;2.254;2024-02-21T15:12:19;11.89;75.46
75961;SHT30;64644;48.914;2.254;2024-02-21T15:14:45;11.86;75.55
75961;SHT30;64644;48.914;2.254;2024-02-21T15:17:13;11.85;75.73
75961;SHT30;64644;48.914;2.254;2024-02-21T15:19:38;11.87;75.86
75961;SHT30;64644;48.914;2.254;2024-02-21T15:22:08;11.89;75.83
75961;SHT30;64644;48.914;2.254;2024-02-21T15:24:37;11.83;76.02
75961;SHT30;64644;48.914;2.254;2024-02-21T15:27:02;11.81;76.58
75961;SHT30;64644;48.914;2.254;2024-02-21T15:29:27;11.83;76.40